sensor_id;sensor_type;location;lat;lon;timestamp;pressure;altitude;pressure_sealevel;temperature;humidity
63115;BME280;49208;50.874;6.466;2022-10-17T05:01:41;100587.75;;;15.61;100.00
63115;BME280;49208;50.874;6.466;2022-10-17T05:04:07;100576.31;;;15.57;100.00
63115;BME280;49208;50.874;6.466;2022-10-17T05:06:32;100585.34;;;15.56;100.00
63115;BME280;49208;50.874;6.466;2022-10-17T05:08:58;100577.09;;;15.60;100.00
63115;BME280;49208;50.874;6.466;2022-10-17T05:11:26;100581.44;;;15.62;100.00
63115;BME280;49208;50.874;6.466;2022-10-17T05:13:54;100586.72;;;15.64;100.00
63115;BME280;49208;50.874;6.466;2022-10-17T05:16:20;100581.28;;;15.65;100.00
63115;BME280;49208;50.874;6.466;2022-10-17T05:18:49;100584.03;;;15.64;100.00
63115;BME280;49208;50.874;6.466;2022-10-17T05:21:15;100586.00;;;15.60;100.00
63115;BME280;49208;50.874;6.466;2022-10-17T05:23:40;100590.44;;;15.61;100.00
63115;BME280;49208;50.874;6.466;2022-10-17T05:26:06;100588.81;;;15.59;100.00
63115;BME280;49208;50.874;6.466;2022-10-17T05:28:32;100597.78;;;15.57;100.00
63115;BME280;49208;50.874;6.466;2022-10-17T05:31:02;100606.81;;;15.56;100.00
63115;BME280;49208;50.874;6.466;2022-10-17T05:33:27;100605.06;;;15.55;100.00
63115;BME280;49208;50.874;6.466;2022-10-17T05:35:53;100607.13;;;15.50;100.00
63115;BME280;49208;50.874;6.466;2022-10-17T05:38:18;100604.78;;;15.44;100.00
63115;BME280;49208;50.874;6.466;2022-10-17T05:40:43;100601.53;;;15.38;100.00
63115;BME280;49208;50.874;6.466;2022-10-17T05:43:09;100602.03;;;15.28;100.00
63115;BME280;49208;50.874;6.466;2022-10-17T05:45:35;100603.38;;;15.20;100.00
63115;BME280;49208;50.874;6.466;2022-10-17T05:48:00;100600.31;;;15.10;100.00
63115;BME280;49208;50.874;6.466;2022-10-17T05:50:25;100603.38;;;15.02;100.00
63115;BME280;49208;50.874;6.466;2022-10-17T05:52:54;100607.34;;;14.95;100.00
63115;BME280;49208;50.874;6.466;2022-10-17T05:55:20;100615.75;;;14.87;100.00
63115;BME280;49208;50.874;6.466;2022-10-17T05:57:46;100609.84;;;14.81;100.00
63115;BME280;49208;50.874;6.466;2022-10-17T06:00:12;100621.84;;;14.73;100.00
63115;BME280;49208;50.874;6.466;2022-10-17T06:02:37;100620.38;;;14.66;100.00
63115;BME280;49208;50.874;6.466;2022-10-17T06:05:03;100633.16;;;14.61;100.00
63115;BME280;49208;50.874;6.466;2022-10-17T06:07:28;100628.06;;;14.55;100.00
63115;BME280;49208;50.874;6.466;2022-10-17T06:09:54;100621.13;;;14.51;100.00
63115;BME280;49208;50.874;6.466;2022-10-17T06:12:19;100626.69;;;14.46;100.00
63115;BME280;49208;50.874;6.466;2022-10-17T06:14:44;100617.00;;;14.44;100.00
63115;BME280;49208;50.874;6.466;2022-10-17T06:17:10;100630.31;;;14.45;100.00
63115;BME280;49208;50.874;6.466;2022-10-17T06:19:35;100624.91;;;14.47;100.00
63115;BME280;49208;50.874;6.466;2022-10-17T06:22:01;100637.31;;;14.48;100.00
63115;BME280;49208;50.874;6.466;2022-10-17T06:24:26;100639.94;;;14.49;100.00
63115;BME280;49208;50.874;6.466;2022-10-17T06:26:51;100641.66;;;14.50;100.00
63115;BME280;49208;50.874;6.466;2022-10-17T06:29:17;100639.88;;;14.51;100.00
63115;BME280;49208;50.874;6.466;2022-10-17T06:31:42;100640.66;;;14.53;100.00
63115;BME280;49208;50.874;6.466;2022-10-17T06:34:08;100646.69;;;14.58;100.00
63115;BME280;49208;50.874;6.466;2022-10-17T06:36:34;100656.97;;;14.67;100.00
63115;BME280;49208;50.874;6.466;2022-10-17T06:38:59;100647.72;;;14.73;100.00
63115;BME280;49208;50.874;6.466;2022-10-17T06:41:24;100651.00;;;14.80;100.00
63115;BME280;49208;50.874;6.466;2022-10-17T06:43:50;100659.50;;;14.88;100.00
63115;BME280;49208;50.874;6.466;2022-10-17T06:46:17;100658.09;;;14.98;100.00
63115;BME280;49208;50.874;6.466;2022-10-17T06:48:42;100669.09;;;15.11;100.00
63115;BME280;49208;50.874;6.466;2022-10-17T06:51:08;100684.44;;;15.25;100.00
63115;BME280;49208;50.874;6.466;2022-10-17T06:53:36;100674.84;;;15.38;100.00
63115;BME280;49208;50.874;6.466;2022-10-17T06:56:02;100675.59;;;15.57;100.00
63115;BME280;49208;50.874;6.466;2022-10-17T06:58:36;100674.66;;;15.76;100.00
63115;BME280;49208;50.874;6.466;2022-10-17T07:01:09;100663.88;;;15.93;100.00
63115;BME280;49208;50.874;6.466;2022-10-17T07:03:35;100658.59;;;16.08;99.25
63115;BME280;49208;50.874;6.466;2022-10-17T07:06:02;100659.56;;;16.23;98.53
63115;BME280;49208;50.874;6.466;2022-10-17T07:08:27;100664.88;;;16.40;97.65
63115;BME280;49208;50.874;6.466;2022-10-17T07:10:53;100663.84;;;16.59;96.57
63115;BME280;49208;50.874;6.466;2022-10-17T07:13:19;100670.22;;;16.72;95.91
63115;BME280;49208;50.874;6.466;2022-10-17T07:15:45;100679.25;;;16.87;95.50
63115;BME280;49208;50.874;6.466;2022-10-17T07:18:10;100674.91;;;17.00;94.34
63115;BME280;49208;50.874;6.466;2022-10-17T07:20:36;100679.28;;;17.17;93.45
63115;BME280;49208;50.874;6.466;2022-10-17T07:23:02;100675.84;;;17.45;92.24
63115;BME280;49208;50.874;6.466;2022-10-17T07:25:27;100682.53;;;17.97;91.37
63115;BME280;49208;50.874;6.466;2022-10-17T07:27:53;100682.63;;;18.80;88.83
63115;BME280;49208;50.874;6.466;2022-10-17T07:30:19;100682.44;;;19.76;84.47
63115;BME280;49208;50.874;6.466;2022-10-17T07:32:45;100674.53;;;20.61;80.30
63115;BME280;49208;50.874;6.466;2022-10-17T07:35:11;100686.38;;;21.44;77.18
63115;BME280;49208;50.874;6.466;2022-10-17T07:37:36;100682.63;;;22.14;69.93
63115;BME280;49208;50.874;6.466;2022-10-17T07:40:04;100673.75;;;22.68;67.33
63115;BME280;49208;50.874;6.466;2022-10-17T07:42:30;100676.72;;;23.09;64.93
63115;BME280;49208;50.874;6.466;2022-10-17T07:44:56;100690.00;;;23.44;65.01
63115;BME280;49208;50.874;6.466;2022-10-17T07:47:21;100699.72;;;23.68;63.97
63115;BME280;49208;50.874;6.466;2022-10-17T07:49:46;100691.59;;;23.89;62.42
63115;BME280;49208;50.874;6.466;2022-10-17T07:52:13;100691.63;;;23.98;60.90
63115;BME280;49208;50.874;6.466;2022-10-17T07:54:39;100690.66;;;23.99;61.79
63115;BME280;49208;50.874;6.466;2022-10-17T07:57:05;100700.63;;;24.20;62.07
63115;BME280;49208;50.874;6.466;2022-10-17T07:59:32;100706.59;;;24.45;61.90
63115;BME280;49208;50.874;6.466;2022-10-17T08:01:58;100713.00;;;24.74;59.67
63115;BME280;49208;50.874;6.466;2022-10-17T08:04:24;100717.09;;;25.09;59.61
63115;BME280;49208;50.874;6.466;2022-10-17T08:06:50;100715.97;;;25.31;56.91
63115;BME280;49208;50.874;6.466;2022-10-17T08:09:15;100731.25;;;25.13;57.51
63115;BME280;49208;50.874;6.466;2022-10-17T08:11:41;100728.72;;;24.51;58.30
63115;BME280;49208;50.874;6.466;2022-10-17T08:14:08;100719.56;;;23.58;60.26
63115;BME280;49208;50.874;6.466;2022-10-17T08:16:35;100726.22;;;22.90;62.95
63115;BME280;49208;50.874;6.466;2022-10-17T08:19:01;100724.19;;;22.59;65.50
63115;BME280;49208;50.874;6.466;2022-10-17T08:21:26;100732.91;;;22.18;67.50
63115;BME280;49208;50.874;6.466;2022-10-17T08:23:52;100737.88;;;21.66;70.24
63115;BME280;49208;50.874;6.466;2022-10-17T08:26:17;100746.41;;;21.13;72.49
63115;BME280;49208;50.874;6.466;2022-10-17T08:28:44;100748.72;;;20.70;74.05
63115;BME280;49208;50.874;6.466;2022-10-17T08:31:20;100751.78;;;20.39;75.12
63115;BME280;49208;50.874;6.466;2022-10-17T08:33:46;100756.13;;;20.16;76.72
63115;BME280;49208;50.874;6.466;2022-10-17T08:36:14;100763.38;;;20.03;77.78
63115;BME280;49208;50.874;6.466;2022-10-17T08:38:40;100772.25;;;19.92;77.79
63115;BME280;49208;50.874;6.466;2022-10-17T08:41:44;100774.03;;;19.79;78.24
63115;BME280;49208;50.874;6.466;2022-10-17T08:44:35;100776.16;;;19.61;78.10
63115;BME280;49208;50.874;6.466;2022-10-17T08:47:07;100784.88;;;19.52;78.67
63115;BME280;49208;50.874;6.466;2022-10-17T08:52:28;100797.66;;;19.35;79.19
63115;BME280;49208;50.874;6.466;2022-10-17T08:54:57;100795.47;;;19.28;79.71
63115;BME280;49208;50.874;6.466;2022-10-17T08:57:23;100787.81;;;19.22;80.04
63115;BME280;49208;50.874;6.466;2022-10-17T08:59:51;100795.22;;;19.18;80.37
63115;BME280;49208;50.874;6.466;2022-10-17T09:10:13;100807.03;;;19.30;82.85
63115;BME280;49208;50.874;6.466;2022-10-17T09:18:25;100818.84;;;19.42;79.96
63115;BME280;49208;50.874;6.466;2022-10-17T09:21:20;100817.91;;;19.43;80.90
63115;BME280;49208;50.874;6.466;2022-10-17T09:23:53;100823.28;;;19.43;81.76
63115;BME280;49208;50.874;6.466;2022-10-17T09:26:20;100825.31;;;19.39;81.65
63115;BME280;49208;50.874;6.466;2022-10-17T09:28:52;100821.97;;;19.35;81.21
63115;BME280;49208;50.874;6.466;2022-10-17T09:31:25;100825.63;;;19.34;81.34
63115;BME280;49208;50.874;6.466;2022-10-17T09:33:56;100826.50;;;19.35;81.01
63115;BME280;49208;50.874;6.466;2022-10-17T09:39:12;100836.31;;;19.36;78.88
63115;BME280;49208;50.874;6.466;2022-10-17T09:41:40;100847.78;;;19.39;78.84
63115;BME280;49208;50.874;6.466;2022-10-17T09:44:48;100844.91;;;19.43;79.03
63115;BME280;49208;50.874;6.466;2022-10-17T09:49:43;100855.28;;;19.49;79.34
63115;BME280;49208;50.874;6.466;2022-10-17T09:52:13;100853.22;;;19.52;79.23
63115;BME280;49208;50.874;6.466;2022-10-17T09:57:13;100859.22;;;19.57;78.29
63115;BME280;49208;50.874;6.466;2022-10-17T09:59:46;100870.78;;;19.59;78.65
63115;BME280;49208;50.874;6.466;2022-10-17T10:02:17;100871.84;;;19.57;78.53
63115;BME280;49208;50.874;6.466;2022-10-17T10:05:03;100870.97;;;19.56;78.96
63115;BME280;49208;50.874;6.466;2022-10-17T10:07:32;100877.25;;;19.57;78.06
63115;BME280;49208;50.874;6.466;2022-10-17T10:09:59;100868.38;;;19.55;77.56
63115;BME280;49208;50.874;6.466;2022-10-17T10:12:27;100870.19;;;19.54;77.85
63115;BME280;49208;50.874;6.466;2022-10-17T10:14:54;100867.81;;;19.50;76.96
63115;BME280;49208;50.874;6.466;2022-10-17T10:19:57;100887.81;;;19.33;78.57
63115;BME280;49208;50.874;6.466;2022-10-17T10:22:23;100892.94;;;19.23;79.21
63115;BME280;49208;50.874;6.466;2022-10-17T10:25:21;100893.63;;;19.12;79.90
63115;BME280;49208;50.874;6.466;2022-10-17T10:27:46;100910.44;;;19.03;79.65
63115;BME280;49208;50.874;6.466;2022-10-17T10:30:21;100913.59;;;18.95;79.19
63115;BME280;49208;50.874;6.466;2022-10-17T10:32:49;100908.59;;;18.89;79.80
63115;BME280;49208;50.874;6.466;2022-10-17T10:35:24;100915.31;;;18.82;80.96
63115;BME280;49208;50.874;6.466;2022-10-17T10:37:55;100906.63;;;18.77;80.64
63115;BME280;49208;50.874;6.466;2022-10-17T10:40:31;100893.16;;;18.77;80.66
63115;BME280;49208;50.874;6.466;2022-10-17T10:42:59;100881.59;;;18.75;82.18
63115;BME280;49208;50.874;6.466;2022-10-17T10:45:40;100875.63;;;18.70;81.68
63115;BME280;49208;50.874;6.466;2022-10-17T10:50:59;100882.06;;;18.67;81.32
63115;BME280;49208;50.874;6.466;2022-10-17T10:56:23;100887.66;;;18.64;82.01
63115;BME280;49208;50.874;6.466;2022-10-17T11:02:35;100892.06;;;18.65;82.69
63115;BME280;49208;50.874;6.466;2022-10-17T11:05:17;100897.38;;;18.67;83.12
63115;BME280;49208;50.874;6.466;2022-10-17T11:08:04;100905.38;;;18.68;83.43
63115;BME280;49208;50.874;6.466;2022-10-17T11:13:16;100909.72;;;18.71;84.37
63115;BME280;49208;50.874;6.466;2022-10-17T11:15:52;100923.09;;;18.72;85.11
63115;BME280;49208;50.874;6.466;2022-10-17T11:18:41;100919.56;;;18.72;86.28
63115;BME280;49208;50.874;6.466;2022-10-17T11:24:02;100922.75;;;18.78;86.53
63115;BME280;49208;50.874;6.466;2022-10-17T11:26:34;100932.47;;;18.81;86.15
63115;BME280;49208;50.874;6.466;2022-10-17T11:29:03;100928.72;;;18.84;85.47
63115;BME280;49208;50.874;6.466;2022-10-17T11:31:36;100941.91;;;18.88;85.02
63115;BME280;49208;50.874;6.466;2022-10-17T11:36:38;100954.16;;;18.94;84.44
63115;BME280;49208;50.874;6.466;2022-10-17T11:39:21;100961.31;;;18.95;84.44
63115;BME280;49208;50.874;6.466;2022-10-17T11:41:53;100958.69;;;18.93;84.49
63115;BME280;49208;50.874;6.466;2022-10-17T11:44:30;100961.56;;;18.90;85.35
63115;BME280;49208;50.874;6.466;2022-10-17T11:49:51;100967.84;;;18.91;83.38
63115;BME280;49208;50.874;6.466;2022-10-17T11:54:51;100968.63;;;18.93;82.45
63115;BME280;49208;50.874;6.466;2022-10-17T12:00:20;100977.28;;;18.98;81.36
63115;BME280;49208;50.874;6.466;2022-10-17T12:07:57;100967.34;;;19.13;80.50
63115;BME280;49208;50.874;6.466;2022-10-17T12:10:27;100971.81;;;19.14;80.58
63115;BME280;49208;50.874;6.466;2022-10-17T12:12:55;100973.66;;;19.13;80.83
63115;BME280;49208;50.874;6.466;2022-10-17T12:18:01;100985.38;;;19.12;80.46
63115;BME280;49208;50.874;6.466;2022-10-17T12:20:31;100978.06;;;19.14;80.62
63115;BME280;49208;50.874;6.466;2022-10-17T12:25:58;100981.16;;;19.23;80.11
63115;BME280;49208;50.874;6.466;2022-10-17T12:28:40;100984.53;;;19.26;80.31
63115;BME280;49208;50.874;6.466;2022-10-17T12:31:08;100994.34;;;19.27;81.33
63115;BME280;49208;50.874;6.466;2022-10-17T12:38:42;100992.50;;;19.28;79.84
63115;BME280;49208;50.874;6.466;2022-10-17T12:41:08;100997.91;;;19.28;79.78
63115;BME280;49208;50.874;6.466;2022-10-17T12:43:37;100998.88;;;19.27;80.07
63115;BME280;49208;50.874;6.466;2022-10-17T12:46:07;101006.22;;;19.25;80.62
63115;BME280;49208;50.874;6.466;2022-10-17T12:56:02;101004.66;;;19.35;80.31
63115;BME280;49208;50.874;6.466;2022-10-17T12:58:28;101009.59;;;19.43;80.51
63115;BME280;49208;50.874;6.466;2022-10-17T13:00:56;101019.09;;;19.48;78.68
63115;BME280;49208;50.874;6.466;2022-10-17T13:03:46;101016.00;;;19.54;78.16
63115;BME280;49208;50.874;6.466;2022-10-17T13:06:34;101016.59;;;19.59;78.28
63115;BME280;49208;50.874;6.466;2022-10-17T13:09:17;101011.88;;;19.63;77.49
63115;BME280;49208;50.874;6.466;2022-10-17T13:11:45;101021.69;;;19.64;77.30
63115;BME280;49208;50.874;6.466;2022-10-17T13:14:15;101020.75;;;19.65;76.87
63115;BME280;49208;50.874;6.466;2022-10-17T13:16:53;101024.41;;;19.64;77.87
63115;BME280;49208;50.874;6.466;2022-10-17T13:19:24;101025.38;;;19.63;76.93
63115;BME280;49208;50.874;6.466;2022-10-17T13:21:56;101024.41;;;19.64;76.90
63115;BME280;49208;50.874;6.466;2022-10-17T13:24:35;101034.34;;;19.64;76.62
63115;BME280;49208;50.874;6.466;2022-10-17T13:27:02;101032.50;;;19.64;77.46
63115;BME280;49208;50.874;6.466;2022-10-17T13:29:29;101029.03;;;19.62;77.60
63115;BME280;49208;50.874;6.466;2022-10-17T13:32:08;101030.09;;;19.59;76.99
63115;BME280;49208;50.874;6.466;2022-10-17T13:34:34;101045.31;;;19.61;76.96
63115;BME280;49208;50.874;6.466;2022-10-17T13:37:03;101034.44;;;19.62;77.40
63115;BME280;49208;50.874;6.466;2022-10-17T13:39:38;101045.25;;;19.62;77.01
63115;BME280;49208;50.874;6.466;2022-10-17T13:42:05;101030.88;;;19.62;77.57
63115;BME280;49208;50.874;6.466;2022-10-17T13:44:33;101036.19;;;19.63;77.32
63115;BME280;49208;50.874;6.466;2022-10-17T13:46:59;101040.53;;;19.66;77.56
63115;BME280;49208;50.874;6.466;2022-10-17T13:49:39;101040.25;;;19.70;77.76
63115;BME280;49208;50.874;6.466;2022-10-17T13:52:06;101039.00;;;19.76;77.12
63115;BME280;49208;50.874;6.466;2022-10-17T13:54:40;101038.69;;;19.81;76.58
63115;BME280;49208;50.874;6.466;2022-10-17T13:57:26;101051.13;;;19.83;76.78
63115;BME280;49208;50.874;6.466;2022-10-17T14:00:00;101043.03;;;19.83;76.73
63115;BME280;49208;50.874;6.466;2022-10-17T14:02:33;101045.81;;;19.82;75.93
63115;BME280;49208;50.874;6.466;2022-10-17T14:08:01;101053.91;;;19.82;76.04
63115;BME280;49208;50.874;6.466;2022-10-17T14:10:39;101059.44;;;19.80;75.14
63115;BME280;49208;50.874;6.466;2022-10-17T14:13:05;101069.47;;;19.78;75.83
63115;BME280;49208;50.874;6.466;2022-10-17T14:15:35;101073.22;;;19.75;75.69
63115;BME280;49208;50.874;6.466;2022-10-17T14:18:06;101077.16;;;19.70;75.61
63115;BME280;49208;50.874;6.466;2022-10-17T14:20:33;101079.50;;;19.62;76.03
63115;BME280;49208;50.874;6.466;2022-10-17T14:22:59;101081.59;;;19.56;76.87
63115;BME280;49208;50.874;6.466;2022-10-17T14:25:30;101084.28;;;19.56;76.74
63115;BME280;49208;50.874;6.466;2022-10-17T14:30:32;101087.78;;;19.58;76.98
63115;BME280;49208;50.874;6.466;2022-10-17T14:33:02;101094.84;;;19.61;77.04
63115;BME280;49208;50.874;6.466;2022-10-17T14:35:29;101097.41;;;19.63;77.65
63115;BME280;49208;50.874;6.466;2022-10-17T14:38:01;101101.66;;;19.67;77.70
63115;BME280;49208;50.874;6.466;2022-10-17T14:40:28;101102.56;;;19.67;77.79
63115;BME280;49208;50.874;6.466;2022-10-17T14:42:56;101100.53;;;19.71;77.47
63115;BME280;49208;50.874;6.466;2022-10-17T14:45:37;101103.81;;;19.76;76.11
63115;BME280;49208;50.874;6.466;2022-10-17T14:48:13;101103.91;;;19.74;76.47
63115;BME280;49208;50.874;6.466;2022-10-17T14:50:40;101104.19;;;19.70;76.85
63115;BME280;49208;50.874;6.466;2022-10-17T14:55:38;101107.28;;;19.64;77.36
63115;BME280;49208;50.874;6.466;2022-10-17T14:58:36;101115.66;;;19.59;77.07
63115;BME280;49208;50.874;6.466;2022-10-17T15:01:01;101123.16;;;19.54;77.70
63115;BME280;49208;50.874;6.466;2022-10-17T15:03:27;101111.50;;;19.53;77.88
63115;BME280;49208;50.874;6.466;2022-10-17T15:05:53;101112.66;;;19.49;77.76
63115;BME280;49208;50.874;6.466;2022-10-17T15:08:21;101105.91;;;19.42;78.81
63115;BME280;49208;50.874;6.466;2022-10-17T15:10:48;101090.84;;;19.38;79.20
63115;BME280;49208;50.874;6.466;2022-10-17T15:13:14;101107.44;;;19.32;79.11
63115;BME280;49208;50.874;6.466;2022-10-17T15:15:40;101115.91;;;19.26;79.74
63115;BME280;49208;50.874;6.466;2022-10-17T15:18:08;101121.69;;;19.20;80.47
63115;BME280;49208;50.874;6.466;2022-10-17T15:20:34;101136.44;;;19.14;81.56
63115;BME280;49208;50.874;6.466;2022-10-17T15:23:00;101135.03;;;19.07;82.10
63115;BME280;49208;50.874;6.466;2022-10-17T15:25:27;101144.47;;;19.00;82.36
63115;BME280;49208;50.874;6.466;2022-10-17T15:27:53;101152.06;;;18.93;82.88
63115;BME280;49208;50.874;6.466;2022-10-17T15:30:27;101156.78;;;18.89;83.69
63115;BME280;49208;50.874;6.466;2022-10-17T15:32:53;101166.00;;;18.85;83.55
63115;BME280;49208;50.874;6.466;2022-10-17T15:35:19;101165.50;;;18.78;83.75
63115;BME280;49208;50.874;6.466;2022-10-17T15:37:45;101170.44;;;18.70;84.32
63115;BME280;49208;50.874;6.466;2022-10-17T15:40:25;101181.66;;;18.63;85.66
63115;BME280;49208;50.874;6.466;2022-10-17T15:42:52;101182.81;;;18.58;87.09
63115;BME280;49208;50.874;6.466;2022-10-17T15:45:19;101185.91;;;18.51;88.52
63115;BME280;49208;50.874;6.466;2022-10-17T15:47:51;101198.38;;;18.37;90.33
63115;BME280;49208;50.874;6.466;2022-10-17T15:50:17;101200.88;;;18.25;91.92
63115;BME280;49208;50.874;6.466;2022-10-17T15:52:42;101200.59;;;18.13;93.09
63115;BME280;49208;50.874;6.466;2022-10-17T15:55:09;101202.16;;;18.02;94.74
63115;BME280;49208;50.874;6.466;2022-10-17T15:57:38;101220.81;;;17.89;95.83
63115;BME280;49208;50.874;6.466;2022-10-17T16:00:17;101214.16;;;17.78;96.40
63115;BME280;49208;50.874;6.466;2022-10-17T16:02:42;101223.56;;;17.70;97.75
63115;BME280;49208;50.874;6.466;2022-10-17T16:05:22;101233.97;;;17.60;99.06
63115;BME280;49208;50.874;6.466;2022-10-17T16:07:48;101226.47;;;17.49;100.00
63115;BME280;49208;50.874;6.466;2022-10-17T16:10:14;101223.38;;;17.40;100.00
63115;BME280;49208;50.874;6.466;2022-10-17T16:12:41;101231.75;;;17.33;100.00
63115;BME280;49208;50.874;6.466;2022-10-17T16:17:43;101232.44;;;17.20;100.00
63115;BME280;49208;50.874;6.466;2022-10-17T16:20:10;101222.78;;;17.15;100.00
63115;BME280;49208;50.874;6.466;2022-10-17T16:22:36;101240.19;;;17.08;100.00
63115;BME280;49208;50.874;6.466;2022-10-17T16:25:03;101234.25;;;17.02;100.00
63115;BME280;49208;50.874;6.466;2022-10-17T16:27:35;101240.88;;;16.94;100.00
63115;BME280;49208;50.874;6.466;2022-10-17T16:30:01;101249.19;;;16.90;100.00
63115;BME280;49208;50.874;6.466;2022-10-17T16:32:26;101256.53;;;16.86;100.00
63115;BME280;49208;50.874;6.466;2022-10-17T16:34:52;101257.63;;;16.82;100.00
63115;BME280;49208;50.874;6.466;2022-10-17T16:37:17;101257.06;;;16.74;100.00
63115;BME280;49208;50.874;6.466;2022-10-17T16:39:42;101250.97;;;16.70;100.00
63115;BME280;49208;50.874;6.466;2022-10-17T16:42:13;101257.38;;;16.68;100.00
63115;BME280;49208;50.874;6.466;2022-10-17T16:44:38;101262.91;;;16.65;100.00
63115;BME280;49208;50.874;6.466;2022-10-17T16:47:03;101259.56;;;16.60;100.00
63115;BME280;49208;50.874;6.466;2022-10-17T16:49:29;101272.19;;;16.57;100.00
63115;BME280;49208;50.874;6.466;2022-10-17T16:51:54;101270.59;;;16.53;100.00
63115;BME280;49208;50.874;6.466;2022-10-17T16:54:19;101271.63;;;16.51;100.00
63115;BME280;49208;50.874;6.466;2022-10-17T16:56:45;101261.97;;;16.47;100.00
63115;BME280;49208;50.874;6.466;2022-10-17T16:59:10;101273.84;;;16.41;100.00
63115;BME280;49208;50.874;6.466;2022-10-17T17:01:36;101273.97;;;16.40;100.00
63115;BME280;49208;50.874;6.466;2022-10-17T17:04:02;101276.78;;;16.36;100.00
63115;BME280;49208;50.874;6.466;2022-10-17T17:06:29;101277.00;;;16.32;100.00
63115;BME280;49208;50.874;6.466;2022-10-17T17:08:55;101275.31;;;16.29;100.00
63115;BME280;49208;50.874;6.466;2022-10-17T17:11:23;101281.69;;;16.27;100.00
63115;BME280;49208;50.874;6.466;2022-10-17T17:13:48;101283.66;;;16.23;100.00
63115;BME280;49208;50.874;6.466;2022-10-17T17:16:17;101282.06;;;16.19;100.00
63115;BME280;49208;50.874;6.466;2022-10-17T17:18:42;101282.19;;;16.16;100.00
63115;BME280;49208;50.874;6.466;2022-10-17T17:21:10;101278.78;;;16.12;100.00
63115;BME280;49208;50.874;6.466;2022-10-17T17:23:37;101279.78;;;16.10;100.00
63115;BME280;49208;50.874;6.466;2022-10-17T17:26:15;101288.84;;;16.07;100.00
63115;BME280;49208;50.874;6.466;2022-10-17T17:28:41;101285.34;;;16.05;100.00
63115;BME280;49208;50.874;6.466;2022-10-17T17:31:09;101283.63;;;16.04;100.00
63115;BME280;49208;50.874;6.466;2022-10-17T17:33:37;101284.63;;;16.02;100.00
63115;BME280;49208;50.874;6.466;2022-10-17T17:36:03;101283.91;;;15.98;100.00
63115;BME280;49208;50.874;6.466;2022-10-17T17:38:30;101292.03;;;15.96;100.00
63115;BME280;49208;50.874;6.466;2022-10-17T17:40:56;101293.91;;;15.94;100.00
63115;BME280;49208;50.874;6.466;2022-10-17T17:43:21;101294.03;;;15.91;100.00
63115;BME280;49208;50.874;6.466;2022-10-17T17:45:47;101296.84;;;15.88;100.00
63115;BME280;49208;50.874;6.466;2022-10-17T17:48:13;101296.97;;;15.85;100.00
63115;BME280;49208;50.874;6.466;2022-10-17T17:50:39;101311.34;;;15.84;100.00
63115;BME280;49208;50.874;6.466;2022-10-17T17:53:06;101307.00;;;15.82;100.00
63115;BME280;49208;50.874;6.466;2022-10-17T17:55:32;101300.81;;;15.80;100.00
63115;BME280;49208;50.874;6.466;2022-10-17T17:57:57;101306.31;;;15.76;100.00
63115;BME280;49208;50.874;6.466;2022-10-17T18:00:23;101304.69;;;15.72;100.00
63115;BME280;49208;50.874;6.466;2022-10-17T18:02:48;101309.38;;;15.67;100.00
63115;BME280;49208;50.874;6.466;2022-10-17T18:05:13;101305.94;;;15.64;100.00
63115;BME280;49208;50.874;6.466;2022-10-17T18:07:39;101302.50;;;15.60;100.00
63115;BME280;49208;50.874;6.466;2022-10-17T18:10:05;101304.53;;;15.55;100.00
63115;BME280;49208;50.874;6.466;2022-10-17T18:12:31;101305.66;;;15.49;100.00
63115;BME280;49208;50.874;6.466;2022-10-17T18:14:56;101309.41;;;15.45;100.00
63115;BME280;49208;50.874;6.466;2022-10-17T18:17:22;101313.16;;;15.41;100.00
63115;BME280;49208;50.874;6.466;2022-10-17T18:19:48;101322.25;;;15.37;100.00
63115;BME280;49208;50.874;6.466;2022-10-17T18:22:13;101325.09;;;15.34;100.00
63115;BME280;49208;50.874;6.466;2022-10-17T18:24:39;101327.81;;;15.32;100.00
63115;BME280;49208;50.874;6.466;2022-10-17T18:27:04;101325.19;;;15.31;100.00
63115;BME280;49208;50.874;6.466;2022-10-17T18:29:30;101326.16;;;15.30;100.00
63115;BME280;49208;50.874;6.466;2022-10-17T18:31:57;101329.84;;;15.27;100.00
63115;BME280;49208;50.874;6.466;2022-10-17T18:34:22;101323.53;;;15.28;100.00
63115;BME280;49208;50.874;6.466;2022-10-17T18:36:47;101321.91;;;15.24;100.00
63115;BME280;49208;50.874;6.466;2022-10-17T18:39:13;101323.78;;;15.22;100.00
63115;BME280;49208;50.874;6.466;2022-10-17T18:41:38;101328.28;;;15.22;100.00
63115;BME280;49208;50.874;6.466;2022-10-17T18:44:04;101324.78;;;15.20;100.00
63115;BME280;49208;50.874;6.466;2022-10-17T18:46:32;101328.47;;;15.17;100.00
63115;BME280;49208;50.874;6.466;2022-10-17T18:49:00;101323.25;;;15.12;100.00
63115;BME280;49208;50.874;6.466;2022-10-17T18:51:26;101327.75;;;15.12;100.00
63115;BME280;49208;50.874;6.466;2022-10-17T18:53:53;101333.19;;;15.10;100.00
63115;BME280;49208;50.874;6.466;2022-10-17T18:56:20;101332.44;;;15.07;100.00
63115;BME280;49208;50.874;6.466;2022-10-17T18:58:46;101334.31;;;15.05;100.00
63115;BME280;49208;50.874;6.466;2022-10-17T19:01:14;101331.69;;;15.03;100.00
63115;BME280;49208;50.874;6.466;2022-10-17T19:03:41;101338.94;;;15.01;100.00
63115;BME280;49208;50.874;6.466;2022-10-17T19:06:08;101338.13;;;14.99;100.00
63115;BME280;49208;50.874;6.466;2022-10-17T19:08:34;101348.94;;;14.96;100.00
63115;BME280;49208;50.874;6.466;2022-10-17T19:11:21;101356.16;;;14.94;100.00
63115;BME280;49208;50.874;6.466;2022-10-17T19:13:47;101355.44;;;14.90;100.00
63115;BME280;49208;50.874;6.466;2022-10-17T19:16:25;101346.59;;;14.88;100.00
63115;BME280;49208;50.874;6.466;2022-10-17T19:18:52;101349.31;;;14.87;100.00
63115;BME280;49208;50.874;6.466;2022-10-17T19:21:18;101344.91;;;14.86;100.00